METAR Data
IDs: Format: Raw Decoded Include TAF

Data at: 0234 UTC 25 Jan 2020

METAR for:KPRO (Perry Muni, IA, US)
Text:KPRO 250215Z AUTO 32011KT 10SM OVC020 M01/M04 A2999 RMK AO2 T10111037
Temperature: -1.1°C ( 30°F)
Dewpoint: -3.7°C ( 25°F) [RH = 82%]
Pressure (altimeter):29.99 inches Hg (1015.7 mb)
Winds:from the NW (320 degrees) at 13 MPH (11 knots; 5.7 m/s)
Visibility:10 or more sm (16+ km)
Ceiling:2000 feet AGL
Clouds: overcast cloud deck at 2000 feet AGL
QC Flag:automated observation with no human augmentation